Time;durP1;ratioP1;P1;durP2;ratioP2;P2;SDS_P1;SDS_P2;PMS_P1;PMS_P2;Temp;Humidity;BMP_temperature;BMP_pressure;BME280_temperature;BME280_humidity;BME280_pressure;Samples;Min_cycle;Max_cycle;Signal;HPM_P1;HPM_P2
2021/10/22 00:01:15;;;;;;;7.63;6.97;;;17.70;99.90;;;;;;5053533;28;20543;-69
2021/10/22 00:03:46;;;;;;;7.90;7.20;;;17.60;99.90;;;;;;5064994;28;20530;-69
2021/10/22 00:06:18;;;;;;;8.90;8.00;;;17.50;99.90;;;;;;5063760;28;20513;-69
2021/10/22 00:08:49;;;;;;;8.43;7.33;;;17.40;99.90;;;;;;5056232;28;20462;-68
2021/10/22 00:11:20;;;;;;;7.73;7.20;;;17.30;99.90;;;;;;5051327;28;20940;-68
2021/10/22 00:13:51;;;;;;;8.40;7.60;;;17.30;99.90;;;;;;5058602;28;20463;-68
2021/10/22 00:16:22;;;;;;;8.07;6.73;;;17.20;99.90;;;;;;5049609;28;20464;-68
2021/10/22 00:18:53;;;;;;;7.97;7.27;;;17.20;99.90;;;;;;5050364;28;20456;-68
2021/10/22 00:21:25;;;;;;;8.47;7.67;;;17.10;99.90;;;;;;5059303;28;20438;-68
2021/10/22 00:23:56;;;;;;;7.77;7.07;;;17.10;99.90;;;;;;5055405;28;20514;-68
2021/10/22 00:26:27;;;;;;;8.10;7.33;;;17.00;99.90;;;;;;5059959;28;20558;-68
2021/10/22 00:28:58;;;;;;;7.77;7.07;;;17.00;99.90;;;;;;5053809;28;20843;-68
2021/10/22 00:31:29;;;;;;;8.87;8.00;;;17.00;99.90;;;;;;5061497;28;20429;-68
2021/10/22 00:34:00;;;;;;;9.40;8.50;;;17.00;99.90;;;;;;5053516;28;20953;-68
2021/10/22 00:36:32;;;;;;;8.70;8.00;;;16.90;99.90;;;;;;5050573;28;20423;-68
2021/10/22 00:39:03;;;;;;;9.30;8.40;;;16.90;99.90;;;;;;5056824;28;20466;-68
2021/10/22 00:41:36;;;;;;;9.80;8.80;;;16.90;99.90;;;;;;5053512;28;20470;-68
2021/10/22 00:44:07;;;;;;;10.40;9.50;;;16.90;99.90;;;;;;5068859;28;20471;-68
2021/10/22 00:46:39;;;;;;;11.17;10.27;;;16.90;99.90;;;;;;5059002;28;20471;-69
2021/10/22 00:49:10;;;;;;;10.33;9.43;;;17.00;99.90;;;;;;5014481;28;20481;-68
2021/10/22 00:51:45;;;;;;;10.73;9.83;;;16.80;99.90;;;;;;5011643;28;20924;-69
2021/10/22 00:54:16;;;;;;;11.77;10.80;;;16.50;99.90;;;;;;5012558;28;20465;-70
2021/10/22 00:56:51;;;;;;;11.27;10.23;;;16.30;99.90;;;;;;5031086;28;21061;-70
2021/10/22 00:59:22;;;;;;;10.50;9.50;;;16.20;99.90;;;;;;5009234;28;20469;-72
2021/10/22 01:01:53;;;;;;;11.10;10.10;;;16.10;99.90;;;;;;5016463;28;20469;-72
2021/10/22 01:04:24;;;;;;;11.67;10.57;;;16.00;99.90;;;;;;5019448;28;20461;-72
2021/10/22 01:06:57;;;;;;;11.73;10.70;;;15.80;99.90;;;;;;5024282;28;20429;-72
2021/10/22 01:09:29;;;;;;;12.07;11.07;;;15.80;99.90;;;;;;5014031;28;20490;-71
2021/10/22 01:12:00;;;;;;;12.10;10.97;;;15.70;99.90;;;;;;5014327;28;20573;-71
2021/10/22 01:14:30;;;;;;;13.03;11.87;;;15.60;99.90;;;;;;5007908;28;20903;-71
2021/10/22 01:17:02;;;;;;;13.37;12.10;;;15.60;99.90;;;;;;5019114;28;20454;-70
2021/10/22 01:19:32;;;;;;;14.07;12.80;;;15.50;99.90;;;;;;5010431;28;20444;-70
2021/10/22 01:22:05;;;;;;;12.63;11.63;;;15.50;99.90;;;;;;5030652;28;20460;-69
2021/10/22 01:24:36;;;;;;;12.80;11.60;;;15.40;99.90;;;;;;5014723;28;20930;-70
2021/10/22 01:27:07;;;;;;;12.27;11.27;;;15.30;99.90;;;;;;5030665;28;20504;-69
2021/10/22 01:29:41;;;;;;;13.13;11.60;;;15.30;99.90;;;;;;5001562;28;20490;-68
2021/10/22 01:32:12;;;;;;;14.37;13.03;;;15.30;99.90;;;;;;5018966;28;20532;-69
2021/10/22 01:34:44;;;;;;;14.33;13.07;;;15.30;99.90;;;;;;5008590;28;20803;-69
2021/10/22 01:37:16;;;;;;;13.63;12.53;;;15.20;99.90;;;;;;5013943;28;20940;-69
2021/10/22 01:39:47;;;;;;;11.33;10.37;;;15.20;99.90;;;;;;5016386;28;20464;-68
2021/10/22 01:42:18;;;;;;;10.93;10.03;;;15.20;99.90;;;;;;5016335;28;20545;-70
2021/10/22 01:44:49;;;;;;;10.07;9.00;;;15.10;99.90;;;;;;5023490;28;20765;-69
2021/10/22 01:47:20;;;;;;;9.37;8.43;;;15.00;99.90;;;;;;5025619;28;20472;-69
2021/10/22 01:49:51;;;;;;;10.20;9.00;;;15.00;99.90;;;;;;5048365;28;20576;-69
2021/10/22 01:52:24;;;;;;;8.40;7.60;;;15.00;99.90;;;;;;5058838;28;20452;-69
2021/10/22 01:54:54;;;;;;;10.33;8.77;;;14.90;99.90;;;;;;5054449;28;20466;-69
2021/10/22 01:57:26;;;;;;;9.27;8.40;;;14.90;99.90;;;;;;5065862;28;20953;-70
2021/10/22 01:59:57;;;;;;;9.43;8.43;;;14.90;99.90;;;;;;5048219;28;20460;-70
2021/10/22 02:02:27;;;;;;;9.70;8.90;;;14.90;99.90;;;;;;5048394;28;20479;-70
2021/10/22 02:04:58;;;;;;;9.57;8.73;;;14.80;99.90;;;;;;5045788;28;20865;-70
2021/10/22 02:07:31;;;;;;;10.07;9.17;;;14.90;99.90;;;;;;5049477;28;20844;-69
2021/10/22 02:10:02;;;;;;;10.07;9.27;;;14.90;99.90;;;;;;5047562;28;20476;-69
2021/10/22 02:12:33;;;;;;;9.73;8.80;;;14.80;99.90;;;;;;5049441;28;20576;-70
2021/10/22 02:15:03;;;;;;;9.97;8.87;;;14.80;99.90;;;;;;5051462;28;20775;-69
2021/10/22 02:17:34;;;;;;;10.23;9.23;;;14.80;99.90;;;;;;5048500;28;20455;-69
2021/10/22 02:20:06;;;;;;;9.20;8.40;;;14.80;99.90;;;;;;5056432;28;20447;-69
2021/10/22 02:22:39;;;;;;;8.70;8.00;;;14.90;99.90;;;;;;5065350;28;20554;-70
2021/10/22 02:25:10;;;;;;;10.00;9.20;;;14.80;99.90;;;;;;5057086;28;20530;-70
2021/10/22 02:27:41;;;;;;;9.47;8.67;;;14.80;99.90;;;;;;5047897;28;20964;-69
2021/10/22 02:30:21;;;;;;;8.73;8.10;;;14.70;99.90;;;;;;5049094;28;20487;-70
2021/10/22 02:32:52;;;;;;;10.20;9.20;;;14.60;99.90;;;;;;5062921;28;20452;-70
2021/10/22 02:35:23;;;;;;;10.60;9.70;;;14.60;99.90;;;;;;5050705;28;20460;-69
2021/10/22 02:37:55;;;;;;;9.47;8.67;;;14.60;99.90;;;;;;5049441;28;20464;-70
2021/10/22 02:40:26;;;;;;;10.13;9.30;;;14.60;99.90;;;;;;5056884;28;20455;-70
2021/10/22 02:42:57;;;;;;;15.20;12.30;;;14.60;99.90;;;;;;5054873;28;20466;-70
2021/10/22 02:45:28;;;;;;;14.63;13.43;;;14.70;99.90;;;;;;5060684;28;20562;-70
2021/10/22 02:47:58;;;;;;;16.53;14.97;;;14.60;99.90;;;;;;5055950;28;20476;-69
2021/10/22 02:50:29;;;;;;;19.43;17.73;;;14.60;99.90;;;;;;5057122;28;20506;-69
2021/10/22 02:53:04;;;;;;;19.73;17.97;;;14.50;99.90;;;;;;5047081;28;20457;-69
2021/10/22 02:55:35;;;;;;;22.80;21.00;;;14.60;99.90;;;;;;5060541;28;20505;-70
2021/10/22 02:58:06;;;;;;;25.47;23.17;;;14.60;99.90;;;;;;5059645;28;20483;-69
2021/10/22 03:00:37;;;;;;;27.93;25.70;;;14.60;99.90;;;;;;5046248;28;20467;-69
2021/10/22 03:03:08;;;;;;;27.93;25.50;;;14.50;99.90;;;;;;5056211;28;20448;-69
2021/10/22 03:05:39;;;;;;;27.77;25.37;;;14.50;99.90;;;;;;5039331;28;20451;-70
2021/10/22 03:08:11;;;;;;;28.83;26.43;;;14.60;99.90;;;;;;5053068;28;20450;-69
2021/10/22 03:10:42;;;;;;;29.70;27.20;;;14.50;99.90;;;;;;5039967;28;20488;-70
2021/10/22 03:13:13;;;;;;;31.13;28.53;;;14.60;99.90;;;;;;5050915;28;20474;-69
2021/10/22 03:15:44;;;;;;;31.57;28.67;;;14.60;99.90;;;;;;5048901;28;20456;-69
2021/10/22 03:18:15;;;;;;;28.63;26.23;;;14.60;99.90;;;;;;5060105;28;20460;-70
2021/10/22 03:20:46;;;;;;;28.57;26.00;;;14.50;99.90;;;;;;5053066;28;20926;-69
2021/10/22 03:23:18;;;;;;;29.80;27.17;;;14.50;99.90;;;;;;5058710;28;20574;-69
2021/10/22 03:25:49;;;;;;;26.10;24.07;;;14.50;99.90;;;;;;5053893;28;20467;-69
2021/10/22 03:28:20;;;;;;;23.80;21.90;;;14.40;99.90;;;;;;5049688;28;20468;-69
2021/10/22 03:30:51;;;;;;;22.30;20.60;;;14.40;99.90;;;;;;5052672;28;20490;-69
2021/10/22 03:33:22;;;;;;;21.83;20.13;;;14.40;99.90;;;;;;5049527;28;20456;-69
2021/10/22 03:35:53;;;;;;;21.83;20.03;;;14.40;99.90;;;;;;5052730;28;20531;-69
2021/10/22 03:38:25;;;;;;;17.10;15.60;;;14.30;99.90;;;;;;5050323;28;20448;-70
2021/10/22 03:40:57;;;;;;;16.10;14.80;;;14.30;99.90;;;;;;5058525;28;20456;-70
2021/10/22 03:43:28;;;;;;;16.27;14.80;;;14.20;99.90;;;;;;5058969;28;20474;-69
2021/10/22 03:45:59;;;;;;;15.00;13.70;;;14.20;99.90;;;;;;5052348;28;20463;-69
2021/10/22 03:48:30;;;;;;;15.10;13.90;;;14.20;99.90;;;;;;5051012;28;20472;-69
2021/10/22 03:51:01;;;;;;;16.30;14.67;;;14.20;99.90;;;;;;5060490;28;20491;-69
2021/10/22 03:53:34;;;;;;;16.30;14.90;;;14.20;99.90;;;;;;5051144;28;20753;-69
2021/10/22 03:56:05;;;;;;;15.20;13.90;;;14.20;99.90;;;;;;5048373;28;20471;-70
2021/10/22 03:58:36;;;;;;;12.60;11.60;;;14.20;99.90;;;;;;5048180;28;20510;-70
2021/10/22 04:01:07;;;;;;;14.70;13.50;;;14.20;99.90;;;;;;5052086;28;20455;-70
2021/10/22 04:03:38;;;;;;;13.90;12.80;;;14.20;99.90;;;;;;5060606;28;20492;-70
2021/10/22 04:06:10;;;;;;;12.53;11.40;;;14.10;99.90;;;;;;5064572;28;20596;-70
2021/10/22 04:08:42;;;;;;;11.67;10.77;;;14.10;99.90;;;;;;5049731;28;20468;-70
2021/10/22 04:11:13;;;;;;;10.20;9.30;;;14.10;99.90;;;;;;5060221;28;20497;-70
2021/10/22 04:13:44;;;;;;;9.20;8.50;;;14.00;99.90;;;;;;5042651;28;20475;-70
2021/10/22 04:16:15;;;;;;;9.17;8.37;;;13.90;99.90;;;;;;5060703;28;20972;-70
2021/10/22 04:18:46;;;;;;;7.53;7.00;;;13.90;99.90;;;;;;5057506;28;20467;-69
2021/10/22 04:21:16;;;;;;;7.80;7.10;;;13.90;99.90;;;;;;5052864;28;20832;-70
2021/10/22 04:23:49;;;;;;;6.40;5.80;;;13.80;99.90;;;;;;5057102;28;20542;-69
2021/10/22 04:26:20;;;;;;;6.40;5.80;;;13.70;99.90;;;;;;5056006;28;20455;-69
2021/10/22 04:28:50;;;;;;;5.60;5.00;;;13.70;99.90;;;;;;5055029;28;20466;-69
2021/10/22 04:31:21;;;;;;;6.20;5.70;;;13.70;99.90;;;;;;5053980;28;20500;-70
2021/10/22 04:33:52;;;;;;;6.40;5.90;;;13.60;99.90;;;;;;5067538;28;20463;-71
2021/10/22 04:36:23;;;;;;;6.00;5.50;;;13.60;99.90;;;;;;5062235;28;20456;-69
2021/10/22 04:41:39;;;;;;;6.23;5.73;;;13.50;99.90;;;;;;5020645;28;20467;-69
2021/10/22 04:44:10;;;;;;;5.17;4.73;;;13.40;99.90;;;;;;5057347;28;20486;-69
2021/10/22 04:46:41;;;;;;;4.90;4.43;;;13.40;99.90;;;;;;5063630;28;20473;-69
2021/10/22 04:49:12;;;;;;;6.70;5.40;;;13.40;99.90;;;;;;5051278;28;20968;-69
2021/10/22 04:51:43;;;;;;;4.70;4.20;;;13.40;99.90;;;;;;5059802;28;20483;-70
2021/10/22 04:54:15;;;;;;;5.30;4.40;;;13.40;99.90;;;;;;5053278;28;20471;-70
2021/10/22 04:56:46;;;;;;;4.27;3.93;;;13.30;99.90;;;;;;5071232;28;20459;-69
2021/10/22 04:59:16;;;;;;;3.60;2.90;;;13.30;99.90;;;;;;5058949;28;20479;-70
2021/10/22 05:01:47;;;;;;;3.43;3.13;;;13.30;99.90;;;;;;5055481;28;20456;-69
2021/10/22 05:04:18;;;;;;;6.07;4.20;;;13.30;99.90;;;;;;5053579;28;20452;-70
2021/10/22 05:06:49;;;;;;;4.27;3.63;;;13.30;99.90;;;;;;5062700;28;20452;-69
2021/10/22 05:09:22;;;;;;;4.50;4.10;;;13.20;99.90;;;;;;5046692;28;20464;-70
2021/10/22 05:11:53;;;;;;;6.73;4.00;;;13.20;99.90;;;;;;5049326;28;20785;-69
2021/10/22 05:14:24;;;;;;;4.03;3.43;;;13.20;99.90;;;;;;5049542;28;20518;-70
2021/10/22 05:16:55;;;;;;;3.50;3.30;;;13.20;99.90;;;;;;5055349;28;20467;-70
2021/10/22 05:19:25;;;;;;;7.70;4.50;;;13.20;99.90;;;;;;5067239;28;20478;-70
2021/10/22 05:21:57;;;;;;;4.50;4.13;;;13.20;99.90;;;;;;5070449;28;20452;-69
2021/10/22 05:24:29;;;;;;;4.63;4.23;;;13.10;99.90;;;;;;5068218;28;20464;-71
2021/10/22 05:27:00;;;;;;;4.60;4.20;;;13.20;99.90;;;;;;5070269;28;20501;-70
2021/10/22 05:29:31;;;;;;;6.60;4.73;;;13.20;99.90;;;;;;5047633;28;20467;-70
2021/10/22 05:32:02;;;;;;;4.93;4.43;;;13.20;99.90;;;;;;5053810;28;20602;-71
2021/10/22 05:34:33;;;;;;;4.47;4.07;;;13.20;99.90;;;;;;5055865;28;20460;-70
2021/10/22 05:37:04;;;;;;;6.00;5.03;;;13.10;99.90;;;;;;5050369;28;20472;-70
2021/10/22 05:39:37;;;;;;;6.10;4.67;;;13.10;99.90;;;;;;5060363;28;20483;-70
2021/10/22 05:42:10;;;;;;;5.60;5.10;;;13.10;99.90;;;;;;5054287;28;20554;-70
2021/10/22 05:44:41;;;;;;;7.30;5.57;;;13.10;99.90;;;;;;5053453;28;20539;-70
2021/10/22 05:47:12;;;;;;;6.67;5.73;;;13.10;99.90;;;;;;5065021;28;20906;-70
2021/10/22 05:49:46;;;;;;;6.20;5.60;;;13.10;99.90;;;;;;5048611;28;20884;-70
2021/10/22 05:52:17;;;;;;;6.53;5.93;;;13.10;99.90;;;;;;5058498;28;20494;-70
2021/10/22 05:54:50;;;;;;;6.93;6.33;;;13.10;99.90;;;;;;5048679;28;20456;-70
2021/10/22 05:57:21;;;;;;;7.73;6.97;;;13.10;99.90;;;;;;5048183;28;20456;-71
2021/10/22 05:59:51;;;;;;;8.10;6.43;;;13.10;99.90;;;;;;5055734;28;20464;-70
2021/10/22 06:02:22;;;;;;;5.50;5.00;;;13.20;99.90;;;;;;5055866;28;20919;-70
2021/10/22 06:04:53;;;;;;;5.20;4.70;;;13.20;99.90;;;;;;5054688;28;21004;-70
2021/10/22 06:07:25;;;;;;;4.87;4.37;;;13.20;99.90;;;;;;5057404;28;20456;-70
2021/10/22 06:09:57;;;;;;;4.77;4.37;;;13.10;99.90;;;;;;5057263;28;20474;-71
2021/10/22 06:12:28;;;;;;;3.77;3.30;;;13.10;99.90;;;;;;5059527;28;20488;-70
2021/10/22 06:14:59;;;;;;;4.87;3.63;;;13.00;99.90;;;;;;5047737;28;20543;-70
2021/10/22 06:17:33;;;;;;;4.30;3.40;;;13.00;99.90;;;;;;5056903;28;20510;-71
2021/10/22 06:20:11;;;;;;;3.30;3.00;;;13.00;99.90;;;;;;5062449;28;20464;-70
2021/10/22 06:23:53;;;;;;;4.70;3.70;;;13.00;99.90;;;;;;5047856;28;20539;-71
2021/10/22 06:25:45;;;;;;;3.43;2.77;;;13.00;99.90;;;;;;5057717;28;20456;-71
2021/10/22 06:28:16;;;;;;;7.43;2.97;;;12.90;99.90;;;;;;5055469;28;20472;-70
2021/10/22 06:30:47;;;;;;;3.33;3.03;;;12.90;99.90;;;;;;5039226;28;20451;-71
2021/10/22 06:33:22;;;;;;;4.70;2.50;;;12.90;99.90;;;;;;5059246;28;20484;-71
2021/10/22 06:35:54;;;;;;;4.20;3.10;;;12.90;99.90;;;;;;5035117;28;20550;-70
2021/10/22 06:38:25;;;;;;;3.20;2.83;;;12.90;99.90;;;;;;5049041;28;20471;-71
2021/10/22 06:41:00;;;;;;;3.43;2.40;;;12.90;99.90;;;;;;5059084;28;20474;-71
2021/10/22 06:43:31;;;;;;;3.00;2.40;;;12.90;99.90;;;;;;5067499;28;20444;-70
2021/10/22 06:46:02;;;;;;;3.80;2.93;;;12.90;99.90;;;;;;5053271;28;20547;-71
2021/10/22 06:48:33;;;;;;;3.90;2.80;;;12.80;99.90;;;;;;5055070;28;20494;-71
2021/10/22 06:51:05;;;;;;;5.83;2.50;;;12.80;99.90;;;;;;5064413;28;20451;-71
2021/10/22 06:53:36;;;;;;;3.60;2.47;;;12.80;99.90;;;;;;5055300;28;20499;-71
2021/10/22 06:56:23;;;;;;;2.70;2.43;;;12.80;99.90;;;;;;5057145;28;20463;-70
2021/10/22 06:58:53;;;;;;;5.40;2.27;;;12.80;99.90;;;;;;5019964;28;20476;-70
2021/10/22 07:01:33;;;;;;;5.10;2.27;;;12.80;99.90;;;;;;5059367;28;20454;-70
2021/10/22 07:04:07;;;;;;;2.40;2.20;;;12.70;99.90;;;;;;5066004;28;20463;-70
2021/10/22 07:09:26;;;;;;;4.37;2.00;;;12.60;99.90;;;;;;5053286;28;20950;-70
2021/10/22 07:11:59;;;;;;;2.53;2.00;;;12.60;99.90;;;;;;5054990;28;20981;-70
2021/10/22 07:14:32;;;;;;;3.47;2.20;;;12.60;99.90;;;;;;5042199;28;20488;-70
2021/10/22 07:17:04;;;;;;;3.40;3.10;;;12.60;99.90;;;;;;5059480;28;20442;-70
2021/10/22 07:19:35;;;;;;;3.20;2.90;;;12.70;99.90;;;;;;5046848;28;20227;-70
2021/10/22 07:22:12;;;;;;;3.37;3.17;;;12.70;99.90;;;;;;5060738;28;20464;-70
2021/10/22 07:24:43;;;;;;;4.27;2.90;;;12.60;99.90;;;;;;5056619;28;20984;-70
2021/10/22 07:27:16;;;;;;;4.10;2.57;;;12.70;99.90;;;;;;5045219;28;20458;-70
2021/10/22 07:29:46;;;;;;;4.03;2.90;;;12.70;99.90;;;;;;5047312;28;20466;-70
2021/10/22 07:32:17;;;;;;;3.20;2.63;;;12.60;99.90;;;;;;5044443;28;20653;-71
2021/10/22 07:34:48;;;;;;;4.10;2.90;;;12.60;99.90;;;;;;5064772;28;20462;-70
2021/10/22 07:37:19;;;;;;;4.00;3.07;;;12.60;99.90;;;;;;5049713;28;20468;-70
2021/10/22 07:39:50;;;;;;;3.50;2.70;;;12.60;99.90;;;;;;5059293;28;20547;-71
2021/10/22 07:42:24;;;;;;;2.80;2.47;;;12.60;99.90;;;;;;5057123;28;20468;-70
2021/10/22 07:44:56;;;;;;;6.43;3.00;;;12.60;99.90;;;;;;5054751;28;20446;-71
2021/10/22 07:47:28;;;;;;;3.27;2.83;;;12.60;99.90;;;;;;5064314;28;20475;-71
2021/10/22 07:49:59;;;;;;;2.43;2.23;;;12.60;99.90;;;;;;5042965;28;20485;-70
2021/10/22 07:52:32;;;;;;;2.60;2.40;;;12.50;99.90;;;;;;5049762;28;20452;-71
2021/10/22 07:55:04;;;;;;;2.63;2.43;;;12.50;99.90;;;;;;5067026;28;20451;-70
2021/10/22 07:57:36;;;;;;;3.00;2.80;;;12.60;99.90;;;;;;5047640;28;20467;-70
2021/10/22 08:00:08;;;;;;;3.13;2.80;;;12.50;99.90;;;;;;5044988;28;20467;-70
2021/10/22 08:02:40;;;;;;;7.10;3.50;;;12.50;99.90;;;;;;5063451;28;20478;-70
2021/10/22 08:05:11;;;;;;;6.53;2.57;;;12.50;99.90;;;;;;5066806;28;20864;-70
2021/10/22 08:07:42;;;;;;;4.10;3.20;;;12.50;99.90;;;;;;5072116;28;20455;-70
2021/10/22 08:10:13;;;;;;;4.00;3.03;;;12.60;99.90;;;;;;5059716;28;20467;-71
2021/10/22 08:12:46;;;;;;;4.90;2.93;;;12.60;99.90;;;;;;5055793;28;20483;-70
2021/10/22 08:15:34;;;;;;;4.10;3.17;;;12.60;99.90;;;;;;5059230;28;20513;-70
2021/10/22 08:18:05;;;;;;;3.33;3.10;;;12.60;99.90;;;;;;5063878;28;20476;-70
2021/10/22 08:20:36;;;;;;;3.60;3.30;;;12.60;99.90;;;;;;5063133;28;20952;-70
2021/10/22 08:23:07;;;;;;;6.73;3.53;;;12.60;99.90;;;;;;5064059;28;20464;-70
2021/10/22 08:25:38;;;;;;;6.70;3.10;;;12.50;99.90;;;;;;5050184;28;21041;-70
2021/10/22 08:28:11;;;;;;;3.90;3.07;;;12.50;99.90;;;;;;5046282;28;20464;-71
2021/10/22 08:30:42;;;;;;;4.40;3.40;;;12.50;99.90;;;;;;5053695;28;20490;-69
2021/10/22 08:33:15;;;;;;;5.17;3.63;;;12.50;99.90;;;;;;5070710;28;20483;-69
2021/10/22 08:35:48;;;;;;;4.13;3.73;;;12.50;99.90;;;;;;5036731;28;20641;-70
2021/10/22 08:38:19;;;;;;;4.27;3.60;;;12.50;99.90;;;;;;5051340;28;20539;-69
2021/10/22 08:40:51;;;;;;;6.33;3.77;;;12.50;99.90;;;;;;5052130;28;20447;-69
2021/10/22 08:43:25;;;;;;;5.50;3.10;;;12.40;99.90;;;;;;5059989;28;20564;-70
2021/10/22 08:45:57;;;;;;;3.27;2.97;;;12.40;99.90;;;;;;5057276;28;20446;-70
2021/10/22 08:48:34;;;;;;;6.00;3.20;;;12.40;99.90;;;;;;5055040;28;20476;-71
2021/10/22 08:51:05;;;;;;;3.73;3.47;;;12.40;99.90;;;;;;5059334;28;20801;-71
2021/10/22 08:53:36;;;;;;;3.67;3.10;;;12.40;99.90;;;;;;5056933;28;20606;-71
2021/10/22 08:56:07;;;;;;;4.67;4.10;;;12.50;99.90;;;;;;5051059;28;20954;-70
2021/10/22 08:58:41;;;;;;;12.50;10.97;;;12.50;99.90;;;;;;5054949;28;20488;-71
2021/10/22 09:01:12;;;;;;;19.23;16.97;;;12.50;99.90;;;;;;5059259;28;20534;-71
2021/10/22 09:03:43;;;;;;;14.33;12.87;;;12.50;99.90;;;;;;5065294;28;20491;-71
2021/10/22 09:06:14;;;;;;;11.27;10.07;;;12.50;99.90;;;;;;5059326;28;20462;-70
2021/10/22 09:08:47;;;;;;;8.93;8.00;;;12.50;99.90;;;;;;5056258;28;20981;-70
2021/10/22 09:11:24;;;;;;;8.93;8.00;;;12.50;99.90;;;;;;5055600;28;20452;-70
2021/10/22 09:14:25;;;;;;;6.60;5.60;;;12.50;99.90;;;;;;5050392;28;20677;-70
2021/10/22 09:16:56;;;;;;;8.67;5.50;;;12.50;99.90;;;;;;5064962;28;20565;-71
2021/10/22 09:19:32;;;;;;;5.63;5.10;;;12.50;99.90;;;;;;5048075;28;20464;-70
2021/10/22 09:22:22;;;;;;;6.93;5.33;;;12.50;99.90;;;;;;5053426;28;20478;-70
2021/10/22 09:25:07;;;;;;;6.00;5.13;;;12.50;99.90;;;;;;5070561;28;20462;-70
2021/10/22 09:27:44;;;;;;;7.70;6.30;;;12.50;99.90;;;;;;5045754;28;20862;-70
2021/10/22 09:30:41;;;;;;;5.60;4.77;;;12.60;99.90;;;;;;5051225;28;20456;-71
2021/10/22 09:33:17;;;;;;;8.60;7.10;;;12.50;99.90;;;;;;5053225;28;20452;-70
2021/10/22 09:35:50;;;;;;;12.50;7.07;;;12.50;99.90;;;;;;5055322;28;20980;-70
2021/10/22 09:38:26;;;;;;;6.60;6.00;;;12.50;99.90;;;;;;5070171;28;20451;-70
2021/10/22 09:41:04;;;;;;;5.90;5.40;;;12.50;99.90;;;;;;5036588;28;20455;-70
2021/10/22 09:43:36;;;;;;;6.37;5.77;;;12.50;99.90;;;;;;5057277;28;20447;-70
2021/10/22 09:46:14;;;;;;;5.40;4.77;;;12.50;99.90;;;;;;5057792;28;20458;-70
2021/10/22 09:48:46;;;;;;;5.10;4.70;;;12.50;99.90;;;;;;5054770;28;20493;-70
2021/10/22 09:51:26;;;;;;;5.77;5.17;;;12.50;99.90;;;;;;5070155;28;20451;-70
2021/10/22 09:53:58;;;;;;;3.83;3.43;;;12.50;99.90;;;;;;5054600;28;20484;-70
2021/10/22 09:56:30;;;;;;;6.60;3.13;;;12.50;99.90;;;;;;5060493;28;20538;-71
2021/10/22 09:59:03;;;;;;;3.27;2.97;;;12.50;99.90;;;;;;5052296;28;20463;-70
2021/10/22 10:01:38;;;;;;;3.80;3.10;;;12.50;99.90;;;;;;5061112;28;20455;-71
2021/10/22 10:04:13;;;;;;;3.23;3.00;;;12.40;99.90;;;;;;5060743;28;20459;-70
2021/10/22 10:07:02;;;;;;;4.93;2.30;;;12.40;99.90;;;;;;5065067;28;20836;-70
2021/10/22 10:09:33;;;;;;;3.00;2.43;;;12.50;99.90;;;;;;5057105;28;20925;-70
2021/10/22 10:12:04;;;;;;;4.37;2.97;;;12.40;99.90;;;;;;5053585;28;20976;-70
2021/10/22 10:14:42;;;;;;;4.03;2.37;;;12.40;99.90;;;;;;5054511;28;20909;-70
2021/10/22 10:17:15;;;;;;;2.10;1.97;;;12.40;99.90;;;;;;5066096;28;20808;-70
2021/10/22 10:19:51;;;;;;;4.03;1.77;;;12.30;99.90;;;;;;5048337;28;20563;-71
2021/10/22 10:22:28;;;;;;;3.90;2.67;;;12.30;99.90;;;;;;5063558;28;20549;-71
2021/10/22 10:25:01;;;;;;;3.43;2.57;;;12.30;99.90;;;;;;5042170;28;20516;-71
2021/10/22 10:27:47;;;;;;;3.50;2.10;;;12.30;99.90;;;;;;5065855;28;20461;-71
2021/10/22 10:30:32;;;;;;;4.43;2.00;;;12.30;99.90;;;;;;5058004;28;20487;-70
2021/10/22 10:33:07;;;;;;;2.57;1.77;;;12.20;99.90;;;;;;5068910;28;20463;-71
2021/10/22 10:35:39;;;;;;;2.40;2.20;;;12.10;99.90;;;;;;5051919;28;20491;-70
2021/10/22 10:38:13;;;;;;;2.20;2.00;;;12.10;99.90;;;;;;5049778;28;20842;-70
2021/10/22 10:40:43;;;;;;;2.80;1.90;;;12.20;99.90;;;;;;5041642;28;20459;-70
2021/10/22 10:43:23;;;;;;;3.13;1.60;;;12.10;99.90;;;;;;5056788;28;20478;-72
2021/10/22 10:45:54;;;;;;;1.90;1.70;;;12.10;99.90;;;;;;5049575;28;21038;-71
2021/10/22 10:48:40;;;;;;;2.20;2.00;;;12.10;99.90;;;;;;5046184;28;20568;-71
2021/10/22 10:51:11;;;;;;;1.90;1.30;;;12.10;99.90;;;;;;5061880;28;20457;-71
2021/10/22 10:53:43;;;;;;;2.90;1.70;;;12.10;99.90;;;;;;5039828;28;20551;-71
2021/10/22 10:56:26;;;;;;;1.73;1.63;;;12.10;99.90;;;;;;5065970;28;20570;-72
2021/10/22 10:58:57;;;;;;;1.77;1.63;;;12.00;99.90;;;;;;5045908;28;20456;-71
2021/10/22 11:01:30;;;;;;;2.17;1.97;;;12.00;99.90;;;;;;5057870;28;20456;-71
2021/10/22 11:04:04;;;;;;;2.10;1.83;;;12.00;99.90;;;;;;5052704;28;20828;-70
2021/10/22 11:06:39;;;;;;;3.00;2.30;;;12.00;99.90;;;;;;5049277;28;20448;-71
2021/10/22 11:09:11;;;;;;;2.03;1.93;;;12.00;99.90;;;;;;5054348;28;20462;-70
2021/10/22 11:11:42;;;;;;;2.63;2.33;;;12.00;99.90;;;;;;5052754;28;20468;-70
2021/10/22 11:14:17;;;;;;;2.03;1.83;;;12.00;99.90;;;;;;5057502;28;20543;-70
2021/10/22 11:16:59;;;;;;;2.00;1.50;;;12.00;99.90;;;;;;5056443;28;20458;-70
2021/10/22 11:19:39;;;;;;;2.57;1.80;;;12.00;99.90;;;;;;5050448;28;20830;-70
2021/10/22 11:22:18;;;;;;;1.90;1.80;;;12.00;99.90;;;;;;5060829;28;20449;-70
2021/10/22 11:24:49;;;;;;;1.57;1.47;;;12.00;99.90;;;;;;5066358;28;20447;-70
2021/10/22 11:27:22;;;;;;;1.80;1.70;;;11.90;99.90;;;;;;5068684;28;20455;-70
2021/10/22 11:29:53;;;;;;;4.63;1.87;;;11.90;99.90;;;;;;5046494;28;20793;-70
2021/10/22 11:32:25;;;;;;;1.80;1.70;;;11.80;99.90;;;;;;5067782;28;20451;-70
2021/10/22 11:35:01;;;;;;;1.50;1.23;;;11.80;99.90;;;;;;5065965;28;20486;-70
2021/10/22 11:37:37;;;;;;;1.77;1.67;;;11.70;99.90;;;;;;5056438;28;20479;-70
2021/10/22 11:40:10;;;;;;;3.83;1.50;;;11.70;99.90;;;;;;5065109;28;20901;-70
2021/10/22 11:42:41;;;;;;;2.47;2.00;;;11.70;99.90;;;;;;5048289;28;20470;-70
2021/10/22 11:45:14;;;;;;;2.07;1.87;;;11.80;99.90;;;;;;5060598;28;20813;-70
2021/10/22 11:47:46;;;;;;;1.53;1.43;;;11.80;99.90;;;;;;5056230;28;20486;-70
2021/10/22 11:50:24;;;;;;;3.63;1.50;;;11.70;99.90;;;;;;5062829;28;21019;-71
2021/10/22 11:53:01;;;;;;;2.03;1.87;;;11.70;99.90;;;;;;5064433;28;20454;-70
2021/10/22 11:55:33;;;;;;;2.67;1.93;;;11.60;99.90;;;;;;5072107;28;20902;-70
2021/10/22 11:58:07;;;;;;;2.47;1.80;;;11.60;99.90;;;;;;5064155;28;20546;-70
2021/10/22 12:00:39;;;;;;;4.00;2.00;;;11.60;99.90;;;;;;5061889;28;20467;-70
2021/10/22 12:03:10;;;;;;;4.33;3.20;;;11.60;99.90;;;;;;5054913;28;20522;-70
2021/10/22 12:05:45;;;;;;;3.47;2.90;;;11.60;99.90;;;;;;5052024;28;20528;-71
2021/10/22 12:08:19;;;;;;;3.10;2.40;;;11.60;99.90;;;;;;5072067;28;20450;-70
2021/10/22 12:10:56;;;;;;;3.37;2.27;;;11.60;99.90;;;;;;5061608;28;20482;-70
2021/10/22 12:13:33;;;;;;;3.97;2.70;;;11.60;99.90;;;;;;5054855;28;20461;-70
2021/10/22 12:16:12;;;;;;;2.17;1.97;;;11.70;99.90;;;;;;5069937;28;20482;-70
2021/10/22 12:18:45;;;;;;;2.50;2.30;;;11.70;99.90;;;;;;5057310;28;20471;-70
2021/10/22 12:21:18;;;;;;;4.00;2.30;;;11.80;99.90;;;;;;5068420;28;20458;-71
2021/10/22 12:23:58;;;;;;;3.50;2.70;;;11.70;99.90;;;;;;5052062;28;20518;-70
2021/10/22 12:26:30;;;;;;;2.23;2.13;;;11.60;99.90;;;;;;5052516;28;20462;-70
2021/10/22 12:29:03;;;;;;;3.60;2.20;;;11.60;99.90;;;;;;5047790;28;20948;-71
2021/10/22 12:31:35;;;;;;;2.60;2.40;;;11.50;99.90;;;;;;5054483;28;20778;-70
2021/10/22 12:34:08;;;;;;;2.47;2.27;;;11.50;99.90;;;;;;5058076;28;20554;-70
2021/10/22 12:36:46;;;;;;;2.67;2.10;;;11.50;99.90;;;;;;5048570;28;20513;-71
2021/10/22 12:39:24;;;;;;;1.80;1.70;;;11.50;99.90;;;;;;5056647;28;20448;-70
2021/10/22 12:41:56;;;;;;;2.67;1.70;;;11.40;99.90;;;;;;5057777;28;20455;-71
2021/10/22 12:44:32;;;;;;;2.43;1.60;;;11.40;99.90;;;;;;5051479;28;20452;-70
2021/10/22 12:47:03;;;;;;;1.60;1.50;;;11.30;99.90;;;;;;5049153;28;20465;-70
2021/10/22 12:49:34;;;;;;;3.23;1.97;;;11.30;99.90;;;;;;5051391;28;20986;-70
2021/10/22 12:52:07;;;;;;;3.97;1.60;;;11.30;99.90;;;;;;5055991;28;20452;-70
2021/10/22 12:54:47;;;;;;;2.93;1.80;;;11.30;99.90;;;;;;5051286;28;20466;-70
2021/10/22 12:57:23;;;;;;;2.00;1.57;;;11.30;99.90;;;;;;5056668;28;21040;-70
2021/10/22 12:59:55;;;;;;;2.87;1.67;;;11.30;99.90;;;;;;5055612;28;20470;-70
2021/10/22 13:02:27;;;;;;;2.47;2.27;;;11.20;99.90;;;;;;5059896;28;20465;-70
2021/10/22 13:05:13;;;;;;;2.13;1.93;;;11.20;99.90;;;;;;5055216;28;20459;-70
2021/10/22 13:08:09;;;;;;;1.90;1.80;;;11.30;99.90;;;;;;5070889;28;20454;-70
2021/10/22 13:10:51;;;;;;;2.13;1.70;;;11.20;99.90;;;;;;5042723;28;20463;-70
2021/10/22 13:13:39;;;;;;;3.17;1.83;;;11.20;99.90;;;;;;5049439;28;20956;-70
2021/10/22 13:21:50;;;;;;;2.07;1.87;;;11.10;99.90;;;;;;5049343;28;20475;-69
2021/10/22 13:24:23;;;;;;;2.10;1.90;;;11.20;99.90;;;;;;5049729;28;20983;-70